Dallas, Texas
Traffic Map
Current Weather Conditions
Dallas, Texas
Scattered Clouds
Scattered Clouds
32°
Feels Like: 35°
Wind Chill: 32° Ceiling: Unl
Heat Index: 35° Visibility: 10mi
Dew Point: 21° Wind: 6mph
Humidity: 52% Direction: 140° (SE)
Pressure: 29.96in Gusts: 0mph
Raw Report DataKDAL 271953Z 14005KT 10SM SCT045 SCT180 SCT250 32/21 A2996 RMK AO2 SLP137 TCU DSNT E-SE T03220211
Traffic Incident Summary
Active as of:
Severity:
Category:
InformationThere was an issue retrieving the traffic information for this location. Please try a different location or try again shortly.
Advertisements
Track Severe Weather on mobile